createdAt,value
2018-12-07T00:00:17.193Z,98231.43
2018-12-07T00:02:45.619Z,98227.56
2018-12-07T00:05:14.091Z,98220.66
2018-12-07T00:07:42.536Z,98226.71
2018-12-07T00:10:11.118Z,98224.13
2018-12-07T00:12:39.571Z,98231.08
2018-12-07T00:15:08.120Z,98225.95
2018-12-07T00:17:36.568Z,98215.19
2018-12-07T00:20:05.947Z,98219.05
2018-12-07T00:22:34.369Z,98228.56
2018-12-07T00:25:02.791Z,98225.94
2018-12-07T00:27:31.774Z,98232.16
2018-12-07T00:30:01.256Z,98224.32
2018-12-07T00:32:29.901Z,98225.63
2018-12-07T00:34:58.503Z,98216.23
2018-12-07T00:37:27.211Z,98215.48
2018-12-07T00:39:55.639Z,98217.67
2018-12-07T00:42:24.059Z,98221.18
2018-12-07T00:44:52.504Z,98217.79
2018-12-07T00:47:20.948Z,98208.76
2018-12-07T00:49:49.420Z,98209.61
2018-12-07T00:52:35.188Z,98196.73
2018-12-07T00:55:03.759Z,98197.66
2018-12-07T00:57:32.182Z,98192.92
2018-12-07T01:00:00.660Z,98201.53
2018-12-07T01:02:29.799Z,98209.61
2018-12-07T01:04:58.350Z,98210.03
2018-12-07T01:07:26.818Z,98201.42
2018-12-07T01:09:55.237Z,98192.42
2018-12-07T01:12:23.707Z,98189.84
2018-12-07T01:14:52.188Z,98186.37
2018-12-07T01:17:20.623Z,98188.60
2018-12-07T01:19:49.107Z,98187.80
2018-12-07T01:22:17.517Z,98188.30
2018-12-07T01:24:46.011Z,98197.43
2018-12-07T01:27:14.471Z,98188.39
2018-12-07T01:29:42.909Z,98190.67
2018-12-07T01:32:11.322Z,98185.97
2018-12-07T01:34:39.810Z,98188.60
2018-12-07T01:37:08.515Z,98189.89
2018-12-07T01:39:37.032Z,98180.04
2018-12-07T01:42:05.500Z,98181.76
2018-12-07T01:44:33.971Z,98176.61
2018-12-07T01:47:02.419Z,98171.94
2018-12-07T01:49:30.851Z,98173.66
2018-12-07T01:51:59.310Z,98174.52
2018-12-07T01:54:27.792Z,98168.91
2018-12-07T01:56:56.236Z,98162.03
2018-12-07T01:59:24.668Z,98174.63
2018-12-07T02:01:53.113Z,98172.98
2018-12-07T02:04:21.546Z,98172.98
2018-12-07T02:06:49.986Z,98171.69
2018-12-07T02:09:18.446Z,98161.30
2018-12-07T02:11:46.860Z,98159.92
2018-12-07T02:14:15.361Z,98170.77
2018-12-07T02:16:43.828Z,98164.28
2018-12-07T02:19:12.260Z,98159.50
2018-12-07T02:21:40.740Z,98160.34
2018-12-07T02:24:09.192Z,98166.38
2018-12-07T02:26:37.649Z,98160.36
2018-12-07T02:29:06.116Z,98149.16
2018-12-07T02:31:34.540Z,98157.84
2018-12-07T02:34:03.002Z,98144.52
2018-12-07T02:36:31.438Z,98138.91
2018-12-07T02:38:59.874Z,98131.58
2018-12-07T02:41:28.344Z,98126.39
2018-12-07T02:43:56.781Z,98119.45
2018-12-07T02:46:25.267Z,98124.67
2018-12-07T02:48:53.700Z,98108.25
2018-12-07T02:51:22.108Z,98109.12
2018-12-07T02:53:50.567Z,98106.09
2018-12-07T02:56:18.999Z,98109.95
2018-12-07T02:58:47.437Z,98106.06
2018-12-07T03:01:15.908Z,98106.95
2018-12-07T03:03:44.348Z,98111.70
2018-12-07T03:06:12.816Z,98112.14
2018-12-07T03:08:41.238Z,98096.63
2018-12-07T03:11:09.672Z,98094.45
2018-12-07T03:13:38.108Z,98093.15
2018-12-07T03:16:06.581Z,98093.61
2018-12-07T03:18:35.026Z,98094.89
2018-12-07T03:21:03.441Z,98087.16
2018-12-07T03:23:32.279Z,98090.19
2018-12-07T03:26:00.783Z,98085.08
2018-12-07T03:28:29.276Z,98088.12
2018-12-07T03:30:58.068Z,98090.27
2018-12-07T03:33:26.503Z,98082.92
2018-12-07T03:35:54.946Z,98080.28
2018-12-07T03:38:23.646Z,98080.27
2018-12-07T03:40:52.093Z,98089.38
2018-12-07T03:43:20.556Z,98082.14
2018-12-07T03:45:49.028Z,98086.89
2018-12-07T03:48:17.450Z,98079.14
2018-12-07T03:50:46.006Z,98076.48
2018-12-07T03:53:14.472Z,98085.09
2018-12-07T03:55:42.899Z,98075.22
2018-12-07T03:58:11.868Z,98077.02
2018-12-07T04:00:41.163Z,98081.83
2018-12-07T04:03:09.634Z,98078.72
2018-12-07T04:05:38.210Z,98067.53
2018-12-07T04:08:07.412Z,98067.54
2018-12-07T04:10:35.819Z,98061.08
2018-12-07T04:13:04.266Z,98071.42
2018-12-07T04:15:32.829Z,98069.33
2018-12-07T04:18:01.331Z,98060.72
2018-12-07T04:20:29.780Z,98068.02
2018-12-07T04:22:58.214Z,98070.13
2018-12-07T04:25:26.689Z,98071.39
2018-12-07T04:27:55.189Z,98068.80
2018-12-07T04:30:24.662Z,98064.45
2018-12-07T04:32:53.169Z,98059.33
2018-12-07T04:35:21.652Z,98055.91
2018-12-07T04:37:50.154Z,98042.92
2018-12-07T04:40:18.583Z,98050.30
2018-12-07T04:42:47.397Z,98046.01
2018-12-07T04:45:15.958Z,98039.19
2018-12-07T04:47:44.530Z,98037.89
2018-12-07T04:50:12.971Z,98031.45
2018-12-07T04:52:41.436Z,98034.96
2018-12-07T04:55:09.891Z,98032.83
2018-12-07T04:57:38.298Z,98042.36
2018-12-07T05:00:07.936Z,98043.17
2018-12-07T05:02:36.401Z,98034.55
2018-12-07T05:05:05.125Z,98031.52
2018-12-07T05:07:33.617Z,98025.92
2018-12-07T05:10:02.074Z,98022.48
2018-12-07T05:12:30.498Z,98020.26
2018-12-07T05:14:59.776Z,98022.42
2018-12-07T05:17:28.211Z,98029.30
2018-12-07T05:19:56.710Z,98026.27
2018-12-07T05:22:25.118Z,98024.55
2018-12-07T05:24:53.560Z,98021.91
2018-12-07T05:27:22.025Z,98015.94
2018-12-07T05:29:50.537Z,98021.52
2018-12-07T05:32:18.969Z,98030.16
2018-12-07T05:34:47.450Z,98010.33
2018-12-07T05:37:15.892Z,98017.22
2018-12-07T05:39:44.604Z,98018.11
2018-12-07T05:42:13.041Z,98012.13
2018-12-07T05:44:41.478Z,98000.51
2018-12-07T05:47:10.605Z,98007.43
2018-12-07T05:49:39.067Z,98004.46
2018-12-07T05:52:07.486Z,98010.49
2018-12-07T05:54:35.989Z,98011.37
2018-12-07T05:57:04.427Z,98010.57
2018-12-07T05:59:32.883Z,98012.67
2018-12-07T06:02:01.408Z,98007.13
2018-12-07T06:04:29.877Z,98008.87
2018-12-07T06:06:58.316Z,97988.61
2018-12-07T06:09:26.789Z,97998.16
2018-12-07T06:11:55.256Z,97991.28
2018-12-07T06:14:23.770Z,97988.70
2018-12-07T06:16:52.285Z,97983.96
2018-12-07T06:19:20.726Z,97985.75
2018-12-07T06:21:49.585Z,97978.91
2018-12-07T06:24:18.408Z,97980.63
2018-12-07T06:26:47.433Z,97972.02
2018-12-07T06:29:15.947Z,97959.55
2018-12-07T06:31:44.411Z,97955.27
2018-12-07T06:34:13.091Z,97951.41
2018-12-07T06:36:41.911Z,97955.40
2018-12-07T06:39:10.584Z,97956.89
2018-12-07T06:41:39.042Z,97951.09
2018-12-07T06:44:07.548Z,97952.94
2018-12-07T06:46:36.007Z,97953.02
2018-12-07T06:49:07.755Z,97954.38
2018-12-07T06:51:36.205Z,97943.59
2018-12-07T06:54:04.919Z,97950.45
2018-12-07T06:56:33.416Z,97947.38
2018-12-07T06:59:01.888Z,97946.52
2018-12-07T07:01:30.351Z,97952.11
2018-12-07T07:03:58.801Z,97953.80
2018-12-07T07:06:27.256Z,97946.38
2018-12-07T07:08:55.724Z,97942.00
2018-12-07T07:11:24.141Z,97954.92
2018-12-07T07:13:52.645Z,97942.33
2018-12-07T07:16:23.259Z,97934.53
2018-12-07T07:18:51.602Z,97937.98
2018-12-07T07:21:20.163Z,97937.98
2018-12-07T07:23:48.636Z,97936.68
2018-12-07T07:26:17.094Z,97938.84
2018-12-07T07:28:45.553Z,97933.23
2018-12-07T07:31:14.313Z,97936.72
2018-12-07T07:33:42.801Z,97932.41
2018-12-07T07:36:11.239Z,97925.09
2018-12-07T07:38:39.936Z,97923.38
2018-12-07T07:41:08.425Z,97926.42
2018-12-07T07:43:36.888Z,97922.11
2018-12-07T07:46:05.332Z,97919.09
2018-12-07T07:48:33.792Z,97919.12
2018-12-07T07:51:02.233Z,97913.94
2018-12-07T07:53:31.083Z,97902.30
2018-12-07T07:55:59.590Z,97900.60
2018-12-07T07:58:28.260Z,97907.13
2018-12-07T08:00:56.742Z,97909.27
2018-12-07T08:03:25.217Z,97904.95
2018-12-07T08:05:53.681Z,97902.79
2018-12-07T08:08:22.163Z,97894.17
2018-12-07T08:10:50.655Z,97892.03
2018-12-07T08:13:19.106Z,97892.05
2018-12-07T08:15:47.566Z,97898.52
2018-12-07T08:18:16.044Z,97885.14
2018-12-07T08:20:44.497Z,97885.16
2018-12-07T08:23:14.878Z,97884.75
2018-12-07T08:25:43.465Z,97877.39
2018-12-07T08:28:11.910Z,97876.55
2018-12-07T08:30:40.327Z,97873.08
2018-12-07T08:33:08.812Z,97864.89
2018-12-07T08:35:37.297Z,97861.88
2018-12-07T08:38:05.741Z,97858.39
2018-12-07T08:40:34.221Z,97856.23
2018-12-07T08:43:02.897Z,97844.58
2018-12-07T08:45:31.719Z,97856.24
2018-12-07T08:48:00.246Z,97852.77
2018-12-07T08:50:29.630Z,97855.31
2018-12-07T08:52:58.785Z,97853.56
2018-12-07T08:55:27.286Z,97843.63
2018-12-07T08:57:55.796Z,97849.23
2018-12-07T09:00:24.277Z,97839.70
2018-12-07T09:02:52.705Z,97840.14
2018-12-07T09:05:21.173Z,97835.80
2018-12-07T09:07:49.585Z,97833.22
2018-12-07T09:10:17.999Z,97836.23
2018-12-07T09:12:46.504Z,97827.13
2018-12-07T09:15:14.971Z,97827.09
2018-12-07T09:17:43.456Z,97830.55
2018-12-07T09:20:11.933Z,97824.48
2018-12-07T09:22:40.370Z,97824.46
2018-12-07T09:25:08.945Z,97820.54
2018-12-07T09:27:37.369Z,97817.02
2018-12-07T09:30:05.927Z,97815.30
2018-12-07T09:32:34.385Z,97810.52
2018-12-07T09:35:05.049Z,97811.80
2018-12-07T09:37:33.483Z,97804.44
2018-12-07T09:40:04.192Z,97806.14
2018-12-07T09:42:32.646Z,97804.83
2018-12-07T09:45:01.108Z,97796.59
2018-12-07T09:47:29.874Z,97787.00
2018-12-07T09:49:58.333Z,97790.45
2018-12-07T09:52:27.005Z,97754.59
2018-12-07T09:54:55.769Z,97782.61
2018-12-07T09:57:25.025Z,97778.69
2018-12-07T09:59:53.533Z,97776.86
2018-12-07T10:02:22.184Z,97767.31
2018-12-07T10:04:50.700Z,97764.66
2018-12-07T10:07:19.184Z,97756.81
2018-12-07T10:09:47.624Z,97748.94
2018-12-07T10:12:16.085Z,97752.80
2018-12-07T10:14:44.816Z,97742.27
2018-12-07T10:17:14.077Z,97738.70
2018-12-07T10:19:43.540Z,97740.41
2018-12-07T10:22:12.250Z,97739.83
2018-12-07T10:24:42.995Z,97731.95
2018-12-07T10:27:11.421Z,97727.53
2018-12-07T10:29:40.817Z,97726.22
2018-12-07T10:32:09.246Z,97720.52
2018-12-07T10:34:37.687Z,97709.63
2018-12-07T10:37:06.160Z,97699.61
2018-12-07T10:39:34.982Z,97701.69
2018-12-07T10:42:03.426Z,97693.95
2018-12-07T10:44:31.913Z,97687.41
2018-12-07T10:47:00.374Z,97684.78
2018-12-07T10:49:30.606Z,97669.13
2018-12-07T10:52:00.850Z,97665.22
2018-12-07T10:54:29.567Z,97655.27
2018-12-07T10:57:00.096Z,97655.82
2018-12-07T10:59:28.597Z,97651.52
2018-12-07T11:02:02.639Z,97643.70
2018-12-07T11:04:36.804Z,97640.27
2018-12-07T11:07:11.011Z,97630.73
2018-12-07T11:12:49.877Z,97626.80
2018-12-07T11:15:24.338Z,97621.20
2018-12-07T11:17:58.769Z,97619.02
2018-12-07T11:20:33.305Z,97619.47
2018-12-07T11:23:07.461Z,97617.72
2018-12-07T11:25:42.425Z,97605.61
2018-12-07T11:28:16.463Z,97608.63
2018-12-07T11:33:49.727Z,97593.50
2018-12-07T11:36:18.856Z,97592.62
2018-12-07T11:38:48.197Z,97584.33
2018-12-07T11:41:17.101Z,97531.40
2018-12-07T11:43:45.565Z,97570.34
2018-12-07T11:46:14.066Z,97572.05
2018-12-07T11:48:44.385Z,97568.63
2018-12-07T11:51:13.518Z,97564.30
2018-12-07T11:53:42.066Z,97550.84
2018-12-07T11:56:10.556Z,97548.61
2018-12-07T11:58:39.013Z,97550.78
2018-12-07T12:01:07.935Z,97536.89
2018-12-07T12:03:36.424Z,97539.06
2018-12-07T12:06:04.889Z,97535.06
2018-12-07T12:08:33.338Z,97534.61
2018-12-07T12:11:04.164Z,97529.81
2018-12-07T12:13:32.857Z,97528.04
2018-12-07T12:16:01.588Z,97522.73
2018-12-07T12:18:30.117Z,97514.44
2018-12-07T12:20:59.105Z,97510.88
2018-12-07T12:23:28.205Z,97504.27
2018-12-07T12:25:56.693Z,97506.33
2018-12-07T12:28:25.121Z,97500.98
2018-12-07T12:30:53.549Z,97503.92
2018-12-07T12:33:22.596Z,97496.41
2018-12-07T12:35:51.956Z,97492.80
2018-12-07T12:38:23.005Z,97489.16
2018-12-07T12:40:51.758Z,97488.10
2018-12-07T12:43:20.210Z,97483.59
2018-12-07T12:45:49.344Z,97478.73
2018-12-07T12:48:18.432Z,97472.09
2018-12-07T12:50:47.706Z,97465.82
2018-12-07T12:53:16.154Z,97463.08
2018-12-07T12:55:44.640Z,97468.54
2018-12-07T12:58:13.105Z,97464.91
2018-12-07T13:00:41.554Z,97466.04
2018-12-07T13:03:10.029Z,97458.59
2018-12-07T13:05:38.492Z,97435.74
2018-12-07T13:08:07.973Z,97460.86
2018-12-07T13:10:36.468Z,97454.41
2018-12-07T13:13:04.925Z,97459.98
2018-12-07T13:15:33.332Z,97448.52
2018-12-07T13:18:03.703Z,97445.27
2018-12-07T13:20:32.128Z,97443.59
2018-12-07T13:23:02.949Z,97442.28
2018-12-07T13:25:31.420Z,97448.08
2018-12-07T13:28:01.389Z,97434.71
2018-12-07T13:30:29.846Z,97435.71
2018-12-07T13:33:00.033Z,97438.88
2018-12-07T13:35:28.743Z,97437.22
2018-12-07T13:37:57.213Z,97433.88
2018-12-07T13:40:25.859Z,97426.91
2018-12-07T13:42:54.787Z,97428.30
2018-12-07T13:45:23.916Z,97420.95
2018-12-07T13:47:52.821Z,97426.69
2018-12-07T13:50:26.904Z,97411.56
2018-12-07T13:52:55.649Z,97415.97
2018-12-07T13:55:24.211Z,97416.44
2018-12-07T13:57:53.691Z,97413.64
2018-12-07T14:00:22.249Z,97411.20
2018-12-07T14:02:50.914Z,97411.75
2018-12-07T14:05:19.482Z,97409.72
2018-12-07T14:07:48.130Z,97402.47
2018-12-07T14:10:16.773Z,97406.06
2018-12-07T14:12:45.553Z,97409.20
2018-12-07T14:15:14.368Z,97408.06
2018-12-07T14:17:43.786Z,97407.17
2018-12-07T14:20:12.986Z,97407.58
2018-12-07T14:22:41.670Z,97398.86
2018-12-07T14:25:10.202Z,97399.22
2018-12-07T14:27:41.967Z,97395.71
2018-12-07T14:30:12.508Z,97395.63
2018-12-07T14:32:43.280Z,97396.48
2018-12-07T14:35:11.910Z,97399.17
2018-12-07T14:37:40.592Z,97391.03
2018-12-07T14:40:10.179Z,97392.09
2018-12-07T14:42:38.783Z,97386.59
2018-12-07T14:45:07.759Z,97386.67
2018-12-07T14:47:37.440Z,97381.66
2018-12-07T14:50:06.285Z,97376.23
2018-12-07T14:52:35.290Z,97374.31
2018-12-07T14:55:04.813Z,97365.79
2018-12-07T14:57:33.687Z,97364.23
2018-12-07T15:00:02.382Z,97359.65
2018-12-07T15:02:30.857Z,97353.73
2018-12-07T15:04:59.685Z,97348.70
2018-12-07T15:07:28.262Z,97347.13
2018-12-07T15:09:56.888Z,97339.08
2018-12-07T15:12:25.513Z,97329.22
2018-12-07T15:14:54.057Z,97330.23
2018-12-07T15:17:22.705Z,97325.10
2018-12-07T15:19:51.352Z,97317.36
2018-12-07T15:22:20.029Z,97312.28
2018-12-07T15:24:49.676Z,97302.39
2018-12-07T15:27:18.405Z,97302.07
2018-12-07T15:29:46.919Z,97293.53
2018-12-07T15:32:15.870Z,97297.98
2018-12-07T15:34:45.551Z,97295.02
2018-12-07T15:37:14.754Z,97295.09
2018-12-07T15:39:43.268Z,97105.39
2018-12-07T15:42:12.786Z,97297.80
2018-12-07T15:44:43.906Z,97296.97
2018-12-07T15:47:14.096Z,97298.36
2018-12-07T15:49:43.008Z,97293.69
2018-12-07T15:52:11.736Z,97286.85
2018-12-07T15:54:40.882Z,97276.98
2018-12-07T15:57:10.912Z,97271.42
2018-12-07T15:59:39.460Z,97258.71
2018-12-07T16:02:08.110Z,97263.08
2018-12-07T16:04:37.100Z,97265.35
2018-12-07T16:07:06.412Z,97253.73
2018-12-07T16:09:35.587Z,97253.41
2018-12-07T16:12:04.562Z,97245.25
2018-12-07T16:14:35.098Z,97239.28
2018-12-07T16:17:05.408Z,97238.06
2018-12-07T16:19:34.123Z,97231.64
2018-12-07T16:22:02.670Z,97220.87
2018-12-07T16:24:32.121Z,97226.09
2018-12-07T16:27:01.556Z,97218.81
2018-12-07T16:29:30.809Z,97217.95
2018-12-07T16:31:59.425Z,97208.06
2018-12-07T16:34:28.248Z,97205.08
2018-12-07T16:36:57.051Z,97203.86
2018-12-07T16:39:25.767Z,97199.16
2018-12-07T16:41:54.380Z,97197.86
2018-12-07T16:44:22.925Z,97162.61
2018-12-07T16:46:52.161Z,97187.16
2018-12-07T16:49:21.576Z,97169.06
2018-12-07T16:54:29.809Z,97148.84
2018-12-07T16:56:58.461Z,97142.37
2018-12-07T16:59:28.693Z,97151.83
2018-12-07T17:01:57.431Z,97152.27
2018-12-07T17:04:27.094Z,97136.71
2018-12-07T17:06:55.989Z,97138.47
2018-12-07T17:09:25.676Z,97131.71
2018-12-07T17:11:54.682Z,97130.04
2018-12-07T17:14:23.808Z,97135.30
2018-12-07T17:16:53.468Z,97131.04
2018-12-07T17:19:23.170Z,97123.14
2018-12-07T17:21:53.123Z,97125.69
2018-12-07T17:24:23.452Z,97129.09
2018-12-07T17:26:52.927Z,97125.09
2018-12-07T17:29:22.606Z,97119.92
2018-12-07T17:31:51.520Z,97111.34
2018-12-07T17:34:21.618Z,97099.45
2018-12-07T17:36:50.385Z,97090.84
2018-12-07T17:39:19.158Z,97080.11
2018-12-07T17:41:48.835Z,97066.36
2018-12-07T17:44:19.821Z,97065.59
2018-12-07T17:46:48.558Z,97066.09
2018-12-07T17:49:17.157Z,97064.77
2018-12-07T17:51:45.897Z,97051.77
2018-12-07T17:54:14.642Z,96960.03
2018-12-07T17:56:43.339Z,97046.66
2018-12-07T17:59:12.693Z,97038.08
2018-12-07T18:01:42.767Z,97027.73
2018-12-07T18:04:12.341Z,97023.89
2018-12-07T18:06:41.327Z,97014.48
2018-12-07T18:09:11.419Z,97005.91
2018-12-07T18:11:48.382Z,97008.52
2018-12-07T18:14:18.143Z,97009.44
2018-12-07T18:16:49.512Z,97010.75
2018-12-07T18:19:18.726Z,97013.81
2018-12-07T18:21:47.773Z,97023.39
2018-12-07T18:24:17.731Z,97029.86
2018-12-07T18:26:47.688Z,97018.25
2018-12-07T18:29:16.328Z,97007.91
2018-12-07T18:31:45.271Z,97016.55
2018-12-07T18:34:15.361Z,97010.50
2018-12-07T18:36:44.820Z,97013.56
2018-12-07T18:39:14.374Z,97009.72
2018-12-07T18:41:44.856Z,96999.74
2018-12-07T18:44:14.295Z,96995.83
2018-12-07T18:46:42.925Z,96987.58
2018-12-07T18:49:11.721Z,96985.38
2018-12-07T18:51:41.610Z,96986.23
2018-12-07T18:54:10.757Z,96978.38
2018-12-07T18:56:39.580Z,96981.34
2018-12-07T18:59:09.133Z,96970.06
2018-12-07T19:01:37.776Z,96958.95
2018-12-07T19:04:06.503Z,96956.89
2018-12-07T19:06:35.814Z,96947.52
2018-12-07T19:09:08.448Z,96938.09
2018-12-07T19:11:37.889Z,96929.55
2018-12-07T19:14:10.592Z,96925.69
2018-12-07T19:16:39.506Z,96913.19
2018-12-07T19:19:08.885Z,96908.89
2018-12-07T19:21:40.222Z,96912.34
2018-12-07T19:24:13.352Z,96900.98
2018-12-07T19:26:42.023Z,96894.03
2018-12-07T19:29:11.992Z,96893.18
2018-12-07T19:31:44.135Z,96891.06
2018-12-07T19:34:13.811Z,96875.50
2018-12-07T19:36:43.218Z,96870.44
2018-12-07T19:39:11.938Z,96873.98
2018-12-07T19:41:40.886Z,96873.63
2018-12-07T19:44:10.915Z,96872.81
2018-12-07T19:46:43.898Z,96865.48
2018-12-07T19:49:13.612Z,96862.41
2018-12-07T19:51:43.309Z,96840.48
2018-12-07T19:54:12.574Z,96835.48
2018-12-07T19:56:42.431Z,96829.22
2018-12-07T19:59:11.993Z,96825.06
2018-12-07T20:01:41.652Z,96798.77
2018-12-07T20:04:11.036Z,96791.47
2018-12-07T20:06:42.799Z,96824.94
2018-12-07T20:09:16.071Z,96806.78
2018-12-07T20:12:04.446Z,96807.27
2018-12-07T20:14:36.116Z,96787.43
2018-12-07T20:17:05.182Z,96796.52
2018-12-07T20:19:34.688Z,96802.03
2018-12-07T20:22:04.362Z,96796.14
2018-12-07T20:24:33.332Z,96792.35
2018-12-07T20:27:02.847Z,96792.86
2018-12-07T20:29:32.008Z,96790.31
2018-12-07T20:32:00.741Z,96787.34
2018-12-07T20:34:29.691Z,96786.93
2018-12-07T20:37:00.625Z,96774.45
2018-12-07T20:39:29.815Z,96775.33
2018-12-07T20:41:59.260Z,96760.55
2018-12-07T20:44:28.339Z,96741.59
2018-12-07T20:46:58.218Z,96746.22
2018-12-07T20:49:28.725Z,96743.77
2018-12-07T20:52:00.657Z,96754.18
2018-12-07T20:54:29.994Z,96761.41
2018-12-07T20:56:58.735Z,96768.53
2018-12-07T20:59:28.929Z,96767.00
2018-12-07T21:02:01.613Z,96761.52
2018-12-07T21:04:33.995Z,96767.28
2018-12-07T21:07:19.598Z,96755.98
2018-12-07T21:09:48.873Z,96751.11
2018-12-07T21:12:27.079Z,96757.18
2018-12-07T21:14:57.485Z,96752.88
2018-12-07T21:17:26.607Z,96748.99
2018-12-07T21:19:56.583Z,96751.67
2018-12-07T21:22:27.269Z,96744.67
2018-12-07T21:24:56.226Z,96751.67
2018-12-07T21:27:24.987Z,96735.74
2018-12-07T21:30:04.803Z,96734.41
2018-12-07T21:32:33.813Z,96728.48
2018-12-07T21:35:06.178Z,96719.69
2018-12-07T21:37:35.151Z,96716.77
2018-12-07T21:40:11.338Z,96708.61
2018-12-07T21:42:41.534Z,96707.64
2018-12-07T21:45:11.002Z,96705.98
2018-12-07T21:47:46.692Z,96699.50
2018-12-07T21:50:17.779Z,96687.54
2018-12-07T21:52:49.695Z,96685.59
2018-12-07T21:55:18.550Z,96692.13
2018-12-07T21:57:47.591Z,96687.45
2018-12-07T22:00:16.471Z,96685.71
2018-12-07T22:02:45.145Z,96688.07
2018-12-07T22:05:13.709Z,96683.45
2018-12-07T22:07:42.847Z,96686.12
2018-12-07T22:10:12.201Z,96692.08
2018-12-07T22:12:42.791Z,96691.52
2018-12-07T22:15:11.602Z,96699.70
2018-12-07T22:17:40.399Z,96699.74
2018-12-07T22:20:13.688Z,96693.30
2018-12-07T22:22:43.234Z,96704.48
2018-12-07T22:25:11.757Z,96701.89
2018-12-07T22:27:41.284Z,96700.55
2018-12-07T22:30:11.157Z,96696.17
2018-12-07T22:32:39.894Z,96686.16
2018-12-07T22:35:08.509Z,96690.50
2018-12-07T22:37:37.209Z,96682.67
2018-12-07T22:40:06.849Z,96674.08
2018-12-07T22:42:35.725Z,96676.27
2018-12-07T22:45:05.364Z,96673.23
2018-12-07T22:47:35.714Z,96678.42
2018-12-07T22:50:04.698Z,96687.45
2018-12-07T22:52:33.138Z,96681.45
2018-12-07T22:55:01.640Z,96683.61
2018-12-07T22:57:30.469Z,96688.67
2018-12-07T22:59:58.893Z,96731.13
2018-12-07T23:02:29.035Z,96713.85
2018-12-07T23:04:57.737Z,96701.85
2018-12-07T23:07:26.470Z,96699.30
2018-12-07T23:09:54.957Z,96703.44
2018-12-07T23:12:23.978Z,96704.77
2018-12-07T23:14:52.480Z,96703.88
2018-12-07T23:17:21.290Z,96702.98
2018-12-07T23:19:49.993Z,96697.34
2018-12-07T23:22:18.475Z,96703.39
2018-12-07T23:24:47.250Z,96706.15
2018-12-07T23:27:16.904Z,96702.34
2018-12-07T23:29:45.754Z,96698.89
2018-12-07T23:32:14.238Z,96699.33
2018-12-07T23:34:42.917Z,96711.50
2018-12-07T23:37:11.374Z,96713.08
2018-12-07T23:39:41.572Z,96718.80
2018-12-07T23:42:10.021Z,96722.36
2018-12-07T23:44:38.695Z,96738.44
2018-12-07T23:47:07.219Z,96738.08
2018-12-07T23:49:35.658Z,96742.89
2018-12-07T23:52:04.096Z,96744.16
2018-12-07T23:54:32.561Z,96740.23
2018-12-07T23:57:00.985Z,96739.74
2018-12-07T23:59:29.470Z,96738.89
